sensor_id;sensor_type;location;lat;lon;timestamp;P1;durP1;ratioP1;P2;durP2;ratioP2
11228;SDS011;5671;47.936;8.716;2023-07-29T00:01:50;2.30;;;2.10;;
11228;SDS011;5671;47.936;8.716;2023-07-29T00:04:18;3.93;;;2.33;;
11228;SDS011;5671;47.936;8.716;2023-07-29T00:06:46;3.50;;;1.80;;
11228;SDS011;5671;47.936;8.716;2023-07-29T00:09:14;2.60;;;2.00;;
11228;SDS011;5671;47.936;8.716;2023-07-29T00:11:41;4.67;;;1.87;;
11228;SDS011;5671;47.936;8.716;2023-07-29T00:14:08;2.20;;;1.93;;
11228;SDS011;5671;47.936;8.716;2023-07-29T00:16:34;5.27;;;2.27;;
11228;SDS011;5671;47.936;8.716;2023-07-29T00:19:02;3.70;;;1.93;;
11228;SDS011;5671;47.936;8.716;2023-07-29T00:21:29;3.63;;;2.30;;
11228;SDS011;5671;47.936;8.716;2023-07-29T00:23:55;3.63;;;2.27;;
11228;SDS011;5671;47.936;8.716;2023-07-29T00:26:25;3.83;;;1.93;;
11228;SDS011;5671;47.936;8.716;2023-07-29T00:28:53;2.33;;;2.00;;
11228;SDS011;5671;47.936;8.716;2023-07-29T00:31:20;3.50;;;2.10;;
11228;SDS011;5671;47.936;8.716;2023-07-29T00:33:48;1.93;;;1.70;;
11228;SDS011;5671;47.936;8.716;2023-07-29T00:36:15;2.43;;;2.07;;
11228;SDS011;5671;47.936;8.716;2023-07-29T00:38:42;1.97;;;1.70;;
11228;SDS011;5671;47.936;8.716;2023-07-29T00:41:08;4.07;;;2.23;;
11228;SDS011;5671;47.936;8.716;2023-07-29T00:43:39;2.00;;;1.90;;
11228;SDS011;5671;47.936;8.716;2023-07-29T00:46:07;2.07;;;1.80;;
11228;SDS011;5671;47.936;8.716;2023-07-29T00:48:35;6.60;;;2.10;;
11228;SDS011;5671;47.936;8.716;2023-07-29T00:51:02;2.33;;;2.10;;
11228;SDS011;5671;47.936;8.716;2023-07-29T00:53:29;3.10;;;2.10;;
11228;SDS011;5671;47.936;8.716;2023-07-29T00:55:56;3.70;;;2.30;;
11228;SDS011;5671;47.936;8.716;2023-07-29T00:58:23;4.10;;;2.00;;
11228;SDS011;5671;47.936;8.716;2023-07-29T01:00:51;3.33;;;2.20;;
11228;SDS011;5671;47.936;8.716;2023-07-29T01:03:19;6.20;;;2.57;;
11228;SDS011;5671;47.936;8.716;2023-07-29T01:05:50;2.40;;;2.20;;
11228;SDS011;5671;47.936;8.716;2023-07-29T01:08:27;4.50;;;2.33;;
11228;SDS011;5671;47.936;8.716;2023-07-29T01:10:58;4.50;;;2.10;;
11228;SDS011;5671;47.936;8.716;2023-07-29T01:13:33;3.77;;;2.13;;
11228;SDS011;5671;47.936;8.716;2023-07-29T01:16:10;2.23;;;2.03;;
11228;SDS011;5671;47.936;8.716;2023-07-29T01:18:43;3.83;;;2.60;;
11228;SDS011;5671;47.936;8.716;2023-07-29T01:21:13;2.33;;;1.87;;
11228;SDS011;5671;47.936;8.716;2023-07-29T01:23:44;2.33;;;1.97;;
11228;SDS011;5671;47.936;8.716;2023-07-29T01:26:10;1.90;;;1.80;;
11228;SDS011;5671;47.936;8.716;2023-07-29T01:28:38;1.93;;;1.83;;
11228;SDS011;5671;47.936;8.716;2023-07-29T01:31:06;2.63;;;1.97;;
11228;SDS011;5671;47.936;8.716;2023-07-29T01:33:39;4.03;;;2.50;;
11228;SDS011;5671;47.936;8.716;2023-07-29T01:36:11;5.23;;;1.90;;
11228;SDS011;5671;47.936;8.716;2023-07-29T01:38:41;1.90;;;1.80;;
11228;SDS011;5671;47.936;8.716;2023-07-29T01:41:11;1.87;;;1.77;;
11228;SDS011;5671;47.936;8.716;2023-07-29T01:43:39;3.57;;;1.67;;
11228;SDS011;5671;47.936;8.716;2023-07-29T01:46:09;2.00;;;1.80;;
11228;SDS011;5671;47.936;8.716;2023-07-29T01:48:36;1.87;;;1.63;;
11228;SDS011;5671;47.936;8.716;2023-07-29T01:51:03;2.23;;;1.67;;
11228;SDS011;5671;47.936;8.716;2023-07-29T01:53:30;2.00;;;1.40;;
11228;SDS011;5671;47.936;8.716;2023-07-29T01:55:59;2.00;;;1.80;;
11228;SDS011;5671;47.936;8.716;2023-07-29T01:58:26;1.50;;;1.40;;
11228;SDS011;5671;47.936;8.716;2023-07-29T02:00:52;3.03;;;1.87;;
11228;SDS011;5671;47.936;8.716;2023-07-29T02:03:19;5.17;;;1.57;;
11228;SDS011;5671;47.936;8.716;2023-07-29T02:05:46;3.60;;;1.77;;
11228;SDS011;5671;47.936;8.716;2023-07-29T02:08:13;1.97;;;1.87;;
11228;SDS011;5671;47.936;8.716;2023-07-29T02:10:40;3.33;;;2.10;;
11228;SDS011;5671;47.936;8.716;2023-07-29T02:13:11;2.63;;;2.30;;
11228;SDS011;5671;47.936;8.716;2023-07-29T02:15:38;2.73;;;2.00;;
11228;SDS011;5671;47.936;8.716;2023-07-29T02:18:05;3.47;;;1.70;;
11228;SDS011;5671;47.936;8.716;2023-07-29T02:20:32;2.87;;;1.70;;
11228;SDS011;5671;47.936;8.716;2023-07-29T02:22:59;1.50;;;1.40;;
11228;SDS011;5671;47.936;8.716;2023-07-29T02:25:26;1.50;;;1.40;;
11228;SDS011;5671;47.936;8.716;2023-07-29T02:27:52;1.67;;;1.50;;
11228;SDS011;5671;47.936;8.716;2023-07-29T02:30:21;5.27;;;1.60;;
11228;SDS011;5671;47.936;8.716;2023-07-29T02:32:48;1.70;;;1.60;;
11228;SDS011;5671;47.936;8.716;2023-07-29T02:35:15;5.03;;;1.90;;
11228;SDS011;5671;47.936;8.716;2023-07-29T02:37:42;1.87;;;1.70;;
11228;SDS011;5671;47.936;8.716;2023-07-29T02:40:09;2.07;;;1.90;;
11228;SDS011;5671;47.936;8.716;2023-07-29T02:42:36;3.17;;;2.10;;
11228;SDS011;5671;47.936;8.716;2023-07-29T02:45:04;4.23;;;1.80;;
11228;SDS011;5671;47.936;8.716;2023-07-29T02:47:36;3.00;;;1.93;;
11228;SDS011;5671;47.936;8.716;2023-07-29T02:50:03;2.83;;;1.60;;
11228;SDS011;5671;47.936;8.716;2023-07-29T02:52:30;3.00;;;1.73;;
11228;SDS011;5671;47.936;8.716;2023-07-29T02:54:57;2.00;;;1.90;;
11228;SDS011;5671;47.936;8.716;2023-07-29T02:57:24;2.10;;;1.90;;
11228;SDS011;5671;47.936;8.716;2023-07-29T02:59:51;3.33;;;1.77;;
11228;SDS011;5671;47.936;8.716;2023-07-29T03:02:18;2.37;;;1.73;;
11228;SDS011;5671;47.936;8.716;2023-07-29T03:04:49;4.77;;;1.80;;
11228;SDS011;5671;47.936;8.716;2023-07-29T03:07:16;2.13;;;1.90;;
11228;SDS011;5671;47.936;8.716;2023-07-29T03:09:43;2.50;;;1.60;;
11228;SDS011;5671;47.936;8.716;2023-07-29T03:12:10;1.90;;;1.80;;
11228;SDS011;5671;47.936;8.716;2023-07-29T03:14:37;5.07;;;1.90;;
11228;SDS011;5671;47.936;8.716;2023-07-29T03:17:04;2.00;;;1.73;;
11228;SDS011;5671;47.936;8.716;2023-07-29T03:19:31;2.27;;;1.90;;
11228;SDS011;5671;47.936;8.716;2023-07-29T03:21:59;2.10;;;1.87;;
11228;SDS011;5671;47.936;8.716;2023-07-29T03:24:26;1.83;;;1.73;;
11228;SDS011;5671;47.936;8.716;2023-07-29T03:26:53;4.43;;;1.73;;
11228;SDS011;5671;47.936;8.716;2023-07-29T03:29:20;2.83;;;1.67;;
11228;SDS011;5671;47.936;8.716;2023-07-29T03:31:47;2.17;;;1.50;;
11228;SDS011;5671;47.936;8.716;2023-07-29T03:34:14;2.07;;;1.43;;
11228;SDS011;5671;47.936;8.716;2023-07-29T03:36:41;1.53;;;1.30;;
11228;SDS011;5671;47.936;8.716;2023-07-29T03:39:09;2.87;;;1.43;;
11228;SDS011;5671;47.936;8.716;2023-07-29T03:41:37;1.07;;;0.90;;
11228;SDS011;5671;47.936;8.716;2023-07-29T03:44:04;6.43;;;1.50;;
11228;SDS011;5671;47.936;8.716;2023-07-29T03:46:31;3.30;;;1.37;;
11228;SDS011;5671;47.936;8.716;2023-07-29T03:48:58;1.30;;;1.20;;
11228;SDS011;5671;47.936;8.716;2023-07-29T03:51:25;4.30;;;1.33;;
11228;SDS011;5671;47.936;8.716;2023-07-29T03:53:54;2.53;;;1.30;;
11228;SDS011;5671;47.936;8.716;2023-07-29T03:56:22;2.90;;;1.50;;
11228;SDS011;5671;47.936;8.716;2023-07-29T03:58:49;1.53;;;1.40;;
11228;SDS011;5671;47.936;8.716;2023-07-29T04:01:16;2.97;;;1.20;;
11228;SDS011;5671;47.936;8.716;2023-07-29T04:03:44;1.20;;;1.20;;
11228;SDS011;5671;47.936;8.716;2023-07-29T04:06:11;2.23;;;1.27;;
11228;SDS011;5671;47.936;8.716;2023-07-29T04:08:38;5.03;;;1.23;;
11228;SDS011;5671;47.936;8.716;2023-07-29T04:11:06;1.63;;;1.50;;
11228;SDS011;5671;47.936;8.716;2023-07-29T04:13:34;2.47;;;1.60;;
11228;SDS011;5671;47.936;8.716;2023-07-29T04:16:02;1.37;;;1.30;;
11228;SDS011;5671;47.936;8.716;2023-07-29T04:18:29;2.40;;;1.70;;
11228;SDS011;5671;47.936;8.716;2023-07-29T04:20:56;1.37;;;1.30;;
11228;SDS011;5671;47.936;8.716;2023-07-29T04:23:26;1.67;;;1.53;;
11228;SDS011;5671;47.936;8.716;2023-07-29T04:25:52;1.47;;;1.37;;
11228;SDS011;5671;47.936;8.716;2023-07-29T04:28:20;3.40;;;1.63;;
11228;SDS011;5671;47.936;8.716;2023-07-29T04:30:48;1.43;;;1.33;;
11228;SDS011;5671;47.936;8.716;2023-07-29T04:33:20;1.70;;;1.60;;
11228;SDS011;5671;47.936;8.716;2023-07-29T04:35:47;4.93;;;1.57;;
11228;SDS011;5671;47.936;8.716;2023-07-29T04:38:16;1.67;;;1.57;;
11228;SDS011;5671;47.936;8.716;2023-07-29T04:40:43;2.60;;;1.70;;
11228;SDS011;5671;47.936;8.716;2023-07-29T04:43:10;3.07;;;1.70;;
11228;SDS011;5671;47.936;8.716;2023-07-29T04:45:41;1.90;;;1.30;;
11228;SDS011;5671;47.936;8.716;2023-07-29T04:48:10;2.37;;;1.90;;
11228;SDS011;5671;47.936;8.716;2023-07-29T04:50:37;1.43;;;1.20;;
11228;SDS011;5671;47.936;8.716;2023-07-29T04:53:04;1.63;;;1.50;;
11228;SDS011;5671;47.936;8.716;2023-07-29T04:55:30;4.30;;;1.73;;
11228;SDS011;5671;47.936;8.716;2023-07-29T04:57:58;3.03;;;1.40;;
11228;SDS011;5671;47.936;8.716;2023-07-29T05:00:25;3.23;;;1.50;;
11228;SDS011;5671;47.936;8.716;2023-07-29T05:02:52;1.97;;;1.70;;
11228;SDS011;5671;47.936;8.716;2023-07-29T05:05:20;3.17;;;1.60;;
11228;SDS011;5671;47.936;8.716;2023-07-29T05:07:47;3.07;;;1.83;;
11228;SDS011;5671;47.936;8.716;2023-07-29T05:10:17;5.77;;;2.27;;
11228;SDS011;5671;47.936;8.716;2023-07-29T05:12:46;2.10;;;1.90;;
11228;SDS011;5671;47.936;8.716;2023-07-29T05:15:13;2.07;;;1.90;;
11228;SDS011;5671;47.936;8.716;2023-07-29T05:17:40;4.97;;;1.80;;
11228;SDS011;5671;47.936;8.716;2023-07-29T05:20:07;2.50;;;1.70;;
11228;SDS011;5671;47.936;8.716;2023-07-29T05:22:36;1.33;;;1.23;;
11228;SDS011;5671;47.936;8.716;2023-07-29T05:25:03;2.27;;;1.60;;
11228;SDS011;5671;47.936;8.716;2023-07-29T05:27:31;2.17;;;1.60;;
11228;SDS011;5671;47.936;8.716;2023-07-29T05:29:58;2.37;;;1.50;;
11228;SDS011;5671;47.936;8.716;2023-07-29T05:32:25;3.20;;;1.40;;
11228;SDS011;5671;47.936;8.716;2023-07-29T05:35:04;2.17;;;1.90;;
11228;SDS011;5671;47.936;8.716;2023-07-29T05:37:32;2.47;;;1.80;;
11228;SDS011;5671;47.936;8.716;2023-07-29T05:40:00;2.00;;;1.80;;
11228;SDS011;5671;47.936;8.716;2023-07-29T05:42:27;2.40;;;1.57;;
11228;SDS011;5671;47.936;8.716;2023-07-29T05:44:54;2.13;;;1.87;;
11228;SDS011;5671;47.936;8.716;2023-07-29T05:47:21;3.03;;;1.80;;
11228;SDS011;5671;47.936;8.716;2023-07-29T05:49:48;5.63;;;2.00;;
11228;SDS011;5671;47.936;8.716;2023-07-29T05:52:15;2.60;;;1.87;;
11228;SDS011;5671;47.936;8.716;2023-07-29T05:54:42;2.07;;;1.90;;
11228;SDS011;5671;47.936;8.716;2023-07-29T05:57:10;2.10;;;1.90;;
11228;SDS011;5671;47.936;8.716;2023-07-29T05:59:38;2.10;;;1.90;;
11228;SDS011;5671;47.936;8.716;2023-07-29T06:02:05;2.23;;;1.90;;
11228;SDS011;5671;47.936;8.716;2023-07-29T06:04:32;2.13;;;1.93;;
11228;SDS011;5671;47.936;8.716;2023-07-29T06:06:58;2.80;;;2.50;;
11228;SDS011;5671;47.936;8.716;2023-07-29T06:09:27;3.57;;;3.27;;
11228;SDS011;5671;47.936;8.716;2023-07-29T06:11:53;4.10;;;3.43;;
11228;SDS011;5671;47.936;8.716;2023-07-29T06:14:22;3.30;;;3.10;;
11228;SDS011;5671;47.936;8.716;2023-07-29T06:16:48;3.53;;;3.17;;
11228;SDS011;5671;47.936;8.716;2023-07-29T06:19:15;4.27;;;3.40;;
11228;SDS011;5671;47.936;8.716;2023-07-29T06:21:44;4.43;;;3.40;;
11228;SDS011;5671;47.936;8.716;2023-07-29T06:24:11;4.23;;;3.83;;
11228;SDS011;5671;47.936;8.716;2023-07-29T06:26:38;4.63;;;3.33;;
11228;SDS011;5671;47.936;8.716;2023-07-29T06:29:04;3.80;;;3.40;;
11228;SDS011;5671;47.936;8.716;2023-07-29T06:31:33;4.30;;;3.30;;
11228;SDS011;5671;47.936;8.716;2023-07-29T06:33:59;4.07;;;3.20;;
11228;SDS011;5671;47.936;8.716;2023-07-29T06:36:26;4.07;;;3.40;;
11228;SDS011;5671;47.936;8.716;2023-07-29T06:38:53;7.47;;;3.57;;
11228;SDS011;5671;47.936;8.716;2023-07-29T06:41:20;4.53;;;3.30;;
11228;SDS011;5671;47.936;8.716;2023-07-29T06:43:47;3.40;;;3.20;;
11228;SDS011;5671;47.936;8.716;2023-07-29T06:46:14;3.50;;;3.27;;
11228;SDS011;5671;47.936;8.716;2023-07-29T06:48:42;3.93;;;3.53;;
11228;SDS011;5671;47.936;8.716;2023-07-29T06:51:09;4.03;;;3.30;;
11228;SDS011;5671;47.936;8.716;2023-07-29T06:53:35;4.20;;;3.90;;
11228;SDS011;5671;47.936;8.716;2023-07-29T06:56:02;4.47;;;3.50;;
11228;SDS011;5671;47.936;8.716;2023-07-29T06:58:29;5.03;;;3.30;;
11228;SDS011;5671;47.936;8.716;2023-07-29T07:00:56;5.00;;;3.73;;
11228;SDS011;5671;47.936;8.716;2023-07-29T07:03:23;4.63;;;3.73;;
11228;SDS011;5671;47.936;8.716;2023-07-29T07:05:51;5.63;;;4.03;;
11228;SDS011;5671;47.936;8.716;2023-07-29T07:08:18;6.40;;;4.10;;
11228;SDS011;5671;47.936;8.716;2023-07-29T07:10:46;4.93;;;4.30;;
11228;SDS011;5671;47.936;8.716;2023-07-29T07:13:13;4.30;;;3.90;;
11228;SDS011;5671;47.936;8.716;2023-07-29T07:15:40;6.60;;;3.10;;
11228;SDS011;5671;47.936;8.716;2023-07-29T07:18:07;6.53;;;3.47;;
11228;SDS011;5671;47.936;8.716;2023-07-29T07:20:34;3.67;;;3.17;;
11228;SDS011;5671;47.936;8.716;2023-07-29T07:23:03;3.40;;;3.10;;
11228;SDS011;5671;47.936;8.716;2023-07-29T07:25:33;2.97;;;2.77;;
11228;SDS011;5671;47.936;8.716;2023-07-29T07:28:00;2.60;;;2.40;;
11228;SDS011;5671;47.936;8.716;2023-07-29T07:30:27;2.90;;;2.70;;
11228;SDS011;5671;47.936;8.716;2023-07-29T07:32:54;2.90;;;2.60;;
11228;SDS011;5671;47.936;8.716;2023-07-29T07:35:21;3.00;;;2.73;;
11228;SDS011;5671;47.936;8.716;2023-07-29T07:37:47;4.67;;;2.67;;
11228;SDS011;5671;47.936;8.716;2023-07-29T07:40:16;2.23;;;2.13;;
11228;SDS011;5671;47.936;8.716;2023-07-29T07:42:43;4.73;;;2.90;;
11228;SDS011;5671;47.936;8.716;2023-07-29T07:45:09;3.87;;;2.77;;
11228;SDS011;5671;47.936;8.716;2023-07-29T07:47:36;2.73;;;2.53;;
11228;SDS011;5671;47.936;8.716;2023-07-29T07:50:03;3.77;;;2.67;;
11228;SDS011;5671;47.936;8.716;2023-07-29T07:52:30;2.93;;;2.63;;
11228;SDS011;5671;47.936;8.716;2023-07-29T07:54:57;2.93;;;2.40;;
11228;SDS011;5671;47.936;8.716;2023-07-29T07:57:25;4.90;;;2.77;;
11228;SDS011;5671;47.936;8.716;2023-07-29T07:59:52;4.33;;;2.77;;
11228;SDS011;5671;47.936;8.716;2023-07-29T08:02:19;4.73;;;2.50;;
11228;SDS011;5671;47.936;8.716;2023-07-29T08:04:46;2.80;;;2.50;;
11228;SDS011;5671;47.936;8.716;2023-07-29T08:07:13;2.80;;;2.60;;
11228;SDS011;5671;47.936;8.716;2023-07-29T08:09:40;3.63;;;2.30;;
11228;SDS011;5671;47.936;8.716;2023-07-29T08:12:07;3.50;;;2.60;;
11228;SDS011;5671;47.936;8.716;2023-07-29T08:14:35;2.90;;;2.40;;
11228;SDS011;5671;47.936;8.716;2023-07-29T08:17:02;2.80;;;2.50;;
11228;SDS011;5671;47.936;8.716;2023-07-29T08:19:29;2.97;;;2.67;;
11228;SDS011;5671;47.936;8.716;2023-07-29T08:21:56;2.90;;;2.70;;
11228;SDS011;5671;47.936;8.716;2023-07-29T08:24:23;2.87;;;2.67;;
11228;SDS011;5671;47.936;8.716;2023-07-29T08:26:50;3.40;;;2.90;;
11228;SDS011;5671;47.936;8.716;2023-07-29T08:29:17;3.47;;;2.80;;
11228;SDS011;5671;47.936;8.716;2023-07-29T08:31:45;4.33;;;2.60;;
11228;SDS011;5671;47.936;8.716;2023-07-29T08:34:12;2.87;;;2.67;;
11228;SDS011;5671;47.936;8.716;2023-07-29T08:36:38;2.53;;;2.33;;
11228;SDS011;5671;47.936;8.716;2023-07-29T08:39:05;2.70;;;2.50;;
11228;SDS011;5671;47.936;8.716;2023-07-29T08:41:34;5.77;;;2.60;;
11228;SDS011;5671;47.936;8.716;2023-07-29T08:44:09;2.50;;;2.30;;
11228;SDS011;5671;47.936;8.716;2023-07-29T08:46:38;3.87;;;2.57;;
11228;SDS011;5671;47.936;8.716;2023-07-29T08:49:09;3.67;;;2.70;;
11228;SDS011;5671;47.936;8.716;2023-07-29T08:51:38;2.70;;;2.50;;
11228;SDS011;5671;47.936;8.716;2023-07-29T08:54:07;3.40;;;2.43;;
11228;SDS011;5671;47.936;8.716;2023-07-29T08:56:36;8.07;;;2.63;;
11228;SDS011;5671;47.936;8.716;2023-07-29T08:59:04;3.63;;;2.47;;
11228;SDS011;5671;47.936;8.716;2023-07-29T09:01:31;4.63;;;2.43;;
11228;SDS011;5671;47.936;8.716;2023-07-29T09:03:58;2.50;;;2.27;;
11228;SDS011;5671;47.936;8.716;2023-07-29T09:06:27;2.53;;;2.33;;
11228;SDS011;5671;47.936;8.716;2023-07-29T09:08:54;3.70;;;3.30;;
11228;SDS011;5671;47.936;8.716;2023-07-29T09:11:31;6.27;;;3.10;;
11228;SDS011;5671;47.936;8.716;2023-07-29T09:13:59;4.20;;;2.73;;
11228;SDS011;5671;47.936;8.716;2023-07-29T09:16:26;3.27;;;2.23;;
11228;SDS011;5671;47.936;8.716;2023-07-29T09:19:00;3.87;;;2.50;;
11228;SDS011;5671;47.936;8.716;2023-07-29T09:21:29;3.00;;;2.20;;
11228;SDS011;5671;47.936;8.716;2023-07-29T09:23:56;10.43;;;2.70;;
11228;SDS011;5671;47.936;8.716;2023-07-29T09:26:23;3.73;;;2.30;;
11228;SDS011;5671;47.936;8.716;2023-07-29T09:28:51;2.47;;;2.27;;
11228;SDS011;5671;47.936;8.716;2023-07-29T09:31:19;4.50;;;2.00;;
11228;SDS011;5671;47.936;8.716;2023-07-29T09:33:47;2.37;;;2.00;;
11228;SDS011;5671;47.936;8.716;2023-07-29T09:36:14;4.97;;;2.50;;
11228;SDS011;5671;47.936;8.716;2023-07-29T09:38:42;2.40;;;2.00;;
11228;SDS011;5671;47.936;8.716;2023-07-29T09:41:11;2.40;;;2.20;;
11228;SDS011;5671;47.936;8.716;2023-07-29T09:43:39;2.70;;;2.20;;
11228;SDS011;5671;47.936;8.716;2023-07-29T09:46:06;2.40;;;2.20;;
11228;SDS011;5671;47.936;8.716;2023-07-29T09:48:33;2.43;;;2.23;;
11228;SDS011;5671;47.936;8.716;2023-07-29T09:51:08;3.33;;;2.20;;
11228;SDS011;5671;47.936;8.716;2023-07-29T09:53:39;3.60;;;2.47;;
11228;SDS011;5671;47.936;8.716;2023-07-29T09:56:08;2.33;;;2.00;;
11228;SDS011;5671;47.936;8.716;2023-07-29T09:58:35;3.60;;;2.53;;
11228;SDS011;5671;47.936;8.716;2023-07-29T10:01:03;2.67;;;2.10;;
11228;SDS011;5671;47.936;8.716;2023-07-29T10:03:30;6.00;;;2.37;;
11228;SDS011;5671;47.936;8.716;2023-07-29T10:05:59;2.30;;;2.10;;
11228;SDS011;5671;47.936;8.716;2023-07-29T10:08:28;2.70;;;2.20;;
11228;SDS011;5671;47.936;8.716;2023-07-29T10:10:56;2.40;;;2.17;;
11228;SDS011;5671;47.936;8.716;2023-07-29T10:13:26;3.30;;;2.00;;
11228;SDS011;5671;47.936;8.716;2023-07-29T10:15:54;3.30;;;2.37;;
11228;SDS011;5671;47.936;8.716;2023-07-29T10:18:21;2.40;;;2.20;;
11228;SDS011;5671;47.936;8.716;2023-07-29T10:20:50;3.40;;;2.00;;
11228;SDS011;5671;47.936;8.716;2023-07-29T10:23:18;2.50;;;2.30;;
11228;SDS011;5671;47.936;8.716;2023-07-29T10:25:49;2.30;;;2.20;;
11228;SDS011;5671;47.936;8.716;2023-07-29T10:28:20;3.13;;;2.10;;
11228;SDS011;5671;47.936;8.716;2023-07-29T10:30:55;5.20;;;2.03;;
11228;SDS011;5671;47.936;8.716;2023-07-29T10:33:23;2.20;;;2.00;;
11228;SDS011;5671;47.936;8.716;2023-07-29T10:35:50;3.53;;;2.17;;
11228;SDS011;5671;47.936;8.716;2023-07-29T10:38:17;3.43;;;2.10;;
11228;SDS011;5671;47.936;8.716;2023-07-29T10:40:47;2.33;;;2.13;;
11228;SDS011;5671;47.936;8.716;2023-07-29T10:43:18;4.70;;;1.90;;
11228;SDS011;5671;47.936;8.716;2023-07-29T10:45:49;2.13;;;1.93;;
11228;SDS011;5671;47.936;8.716;2023-07-29T10:51:24;1.93;;;1.83;;
11228;SDS011;5671;47.936;8.716;2023-07-29T10:53:54;2.50;;;2.20;;
11228;SDS011;5671;47.936;8.716;2023-07-29T10:56:26;4.50;;;1.90;;
11228;SDS011;5671;47.936;8.716;2023-07-29T10:58:54;4.73;;;2.07;;
11228;SDS011;5671;47.936;8.716;2023-07-29T11:01:26;3.67;;;1.90;;
11228;SDS011;5671;47.936;8.716;2023-07-29T11:04:02;2.20;;;2.00;;
11228;SDS011;5671;47.936;8.716;2023-07-29T11:09:52;1.90;;;1.80;;
11228;SDS011;5671;47.936;8.716;2023-07-29T11:12:38;1.90;;;1.80;;
11228;SDS011;5671;47.936;8.716;2023-07-29T11:17:56;1.87;;;1.77;;
11228;SDS011;5671;47.936;8.716;2023-07-29T11:20:26;1.60;;;1.50;;
11228;SDS011;5671;47.936;8.716;2023-07-29T11:22:53;3.07;;;2.00;;
11228;SDS011;5671;47.936;8.716;2023-07-29T11:25:22;2.40;;;2.03;;
11228;SDS011;5671;47.936;8.716;2023-07-29T11:27:50;3.77;;;2.07;;
11228;SDS011;5671;47.936;8.716;2023-07-29T11:30:18;1.70;;;1.60;;
11228;SDS011;5671;47.936;8.716;2023-07-29T11:32:45;2.10;;;1.80;;
11228;SDS011;5671;47.936;8.716;2023-07-29T11:35:13;2.03;;;1.83;;
11228;SDS011;5671;47.936;8.716;2023-07-29T11:37:43;2.10;;;1.90;;
11228;SDS011;5671;47.936;8.716;2023-07-29T11:40:13;1.77;;;1.67;;
11228;SDS011;5671;47.936;8.716;2023-07-29T11:42:41;1.67;;;1.57;;
11228;SDS011;5671;47.936;8.716;2023-07-29T11:45:08;1.93;;;1.83;;
11228;SDS011;5671;47.936;8.716;2023-07-29T11:47:36;2.20;;;2.00;;
11228;SDS011;5671;47.936;8.716;2023-07-29T11:50:03;2.10;;;1.83;;
11228;SDS011;5671;47.936;8.716;2023-07-29T11:52:31;2.87;;;1.83;;
11228;SDS011;5671;47.936;8.716;2023-07-29T11:55:01;1.87;;;1.77;;
11228;SDS011;5671;47.936;8.716;2023-07-29T11:57:29;1.97;;;1.87;;
11228;SDS011;5671;47.936;8.716;2023-07-29T11:59:57;1.80;;;1.70;;
11228;SDS011;5671;47.936;8.716;2023-07-29T12:02:23;1.73;;;1.60;;
11228;SDS011;5671;47.936;8.716;2023-07-29T12:04:51;2.13;;;1.83;;
11228;SDS011;5671;47.936;8.716;2023-07-29T12:07:19;1.90;;;1.80;;
11228;SDS011;5671;47.936;8.716;2023-07-29T12:09:46;1.93;;;1.83;;
11228;SDS011;5671;47.936;8.716;2023-07-29T12:12:15;1.60;;;1.50;;
11228;SDS011;5671;47.936;8.716;2023-07-29T12:14:43;1.90;;;1.70;;
11228;SDS011;5671;47.936;8.716;2023-07-29T12:17:12;1.80;;;1.70;;
11228;SDS011;5671;47.936;8.716;2023-07-29T12:19:39;1.90;;;1.80;;
11228;SDS011;5671;47.936;8.716;2023-07-29T12:22:07;1.80;;;1.70;;
11228;SDS011;5671;47.936;8.716;2023-07-29T12:24:39;1.90;;;1.80;;
11228;SDS011;5671;47.936;8.716;2023-07-29T12:27:10;1.80;;;1.70;;
11228;SDS011;5671;47.936;8.716;2023-07-29T12:29:42;2.80;;;2.60;;
11228;SDS011;5671;47.936;8.716;2023-07-29T12:32:11;1.83;;;1.73;;
11228;SDS011;5671;47.936;8.716;2023-07-29T12:34:39;1.90;;;1.80;;
11228;SDS011;5671;47.936;8.716;2023-07-29T12:37:06;1.63;;;1.53;;
11228;SDS011;5671;47.936;8.716;2023-07-29T12:39:34;3.63;;;2.23;;
11228;SDS011;5671;47.936;8.716;2023-07-29T12:42:02;1.70;;;1.60;;
11228;SDS011;5671;47.936;8.716;2023-07-29T12:44:30;1.83;;;1.73;;
11228;SDS011;5671;47.936;8.716;2023-07-29T12:47:00;1.80;;;1.70;;
11228;SDS011;5671;47.936;8.716;2023-07-29T12:49:27;1.97;;;1.77;;
11228;SDS011;5671;47.936;8.716;2023-07-29T12:51:54;3.33;;;1.90;;
11228;SDS011;5671;47.936;8.716;2023-07-29T12:54:21;2.43;;;2.17;;
11228;SDS011;5671;47.936;8.716;2023-07-29T12:56:48;1.90;;;1.80;;
11228;SDS011;5671;47.936;8.716;2023-07-29T12:59:16;3.83;;;1.80;;
11228;SDS011;5671;47.936;8.716;2023-07-29T13:01:42;2.03;;;1.93;;
11228;SDS011;5671;47.936;8.716;2023-07-29T13:04:11;1.80;;;1.70;;
11228;SDS011;5671;47.936;8.716;2023-07-29T13:06:38;3.27;;;1.70;;
11228;SDS011;5671;47.936;8.716;2023-07-29T13:09:05;2.13;;;1.93;;
11228;SDS011;5671;47.936;8.716;2023-07-29T13:11:32;2.20;;;2.00;;
11228;SDS011;5671;47.936;8.716;2023-07-29T13:13:59;1.97;;;1.87;;
11228;SDS011;5671;47.936;8.716;2023-07-29T13:16:26;2.00;;;1.90;;
11228;SDS011;5671;47.936;8.716;2023-07-29T13:18:53;4.67;;;2.20;;
11228;SDS011;5671;47.936;8.716;2023-07-29T13:21:22;2.73;;;2.00;;
11228;SDS011;5671;47.936;8.716;2023-07-29T13:23:49;2.93;;;1.80;;
11228;SDS011;5671;47.936;8.716;2023-07-29T13:26:15;2.37;;;1.70;;
11228;SDS011;5671;47.936;8.716;2023-07-29T13:28:42;2.03;;;1.83;;
11228;SDS011;5671;47.936;8.716;2023-07-29T13:31:15;2.50;;;2.27;;
11228;SDS011;5671;47.936;8.716;2023-07-29T13:33:43;2.57;;;2.00;;
11228;SDS011;5671;47.936;8.716;2023-07-29T13:36:10;2.40;;;2.20;;
11228;SDS011;5671;47.936;8.716;2023-07-29T13:38:38;3.17;;;2.10;;
11228;SDS011;5671;47.936;8.716;2023-07-29T13:41:05;3.33;;;2.07;;
11228;SDS011;5671;47.936;8.716;2023-07-29T13:43:32;2.63;;;2.33;;
11228;SDS011;5671;47.936;8.716;2023-07-29T13:45:59;2.20;;;2.07;;
11228;SDS011;5671;47.936;8.716;2023-07-29T13:48:26;2.20;;;2.10;;
11228;SDS011;5671;47.936;8.716;2023-07-29T13:50:52;2.83;;;1.83;;
11228;SDS011;5671;47.936;8.716;2023-07-29T13:53:19;2.57;;;2.03;;
11228;SDS011;5671;47.936;8.716;2023-07-29T13:55:50;2.30;;;2.20;;
11228;SDS011;5671;47.936;8.716;2023-07-29T13:58:17;2.30;;;2.20;;
11228;SDS011;5671;47.936;8.716;2023-07-29T14:00:44;2.53;;;2.33;;
11228;SDS011;5671;47.936;8.716;2023-07-29T14:03:11;2.30;;;2.10;;
11228;SDS011;5671;47.936;8.716;2023-07-29T14:05:38;2.90;;;2.20;;
11228;SDS011;5671;47.936;8.716;2023-07-29T14:08:05;2.17;;;2.00;;
11228;SDS011;5671;47.936;8.716;2023-07-29T14:10:32;2.00;;;1.90;;
11228;SDS011;5671;47.936;8.716;2023-07-29T14:13:00;2.13;;;2.00;;
11228;SDS011;5671;47.936;8.716;2023-07-29T14:15:27;2.20;;;2.10;;
11228;SDS011;5671;47.936;8.716;2023-07-29T14:18:00;4.10;;;2.00;;
11228;SDS011;5671;47.936;8.716;2023-07-29T14:20:27;1.80;;;1.70;;
11228;SDS011;5671;47.936;8.716;2023-07-29T14:22:54;1.90;;;1.80;;
11228;SDS011;5671;47.936;8.716;2023-07-29T14:25:21;2.73;;;1.97;;
11228;SDS011;5671;47.936;8.716;2023-07-29T14:27:48;9.50;;;2.10;;
11228;SDS011;5671;47.936;8.716;2023-07-29T14:30:16;2.83;;;2.03;;
11228;SDS011;5671;47.936;8.716;2023-07-29T14:32:51;3.17;;;2.03;;
11228;SDS011;5671;47.936;8.716;2023-07-29T14:35:26;2.30;;;2.10;;
11228;SDS011;5671;47.936;8.716;2023-07-29T14:37:53;1.90;;;1.80;;
11228;SDS011;5671;47.936;8.716;2023-07-29T14:40:20;2.00;;;1.80;;
11228;SDS011;5671;47.936;8.716;2023-07-29T14:42:49;2.97;;;2.00;;
11228;SDS011;5671;47.936;8.716;2023-07-29T14:45:19;2.70;;;2.40;;
11228;SDS011;5671;47.936;8.716;2023-07-29T14:47:46;2.77;;;2.10;;
11228;SDS011;5671;47.936;8.716;2023-07-29T14:50:13;2.40;;;2.20;;
11228;SDS011;5671;47.936;8.716;2023-07-29T14:52:42;2.17;;;2.00;;
11228;SDS011;5671;47.936;8.716;2023-07-29T14:55:09;2.17;;;1.97;;
11228;SDS011;5671;47.936;8.716;2023-07-29T14:57:36;4.10;;;2.27;;
11228;SDS011;5671;47.936;8.716;2023-07-29T15:00:03;2.50;;;2.30;;
11228;SDS011;5671;47.936;8.716;2023-07-29T15:02:38;2.27;;;2.10;;
11228;SDS011;5671;47.936;8.716;2023-07-29T15:05:08;3.50;;;2.00;;
11228;SDS011;5671;47.936;8.716;2023-07-29T15:07:35;3.07;;;2.50;;
11228;SDS011;5671;47.936;8.716;2023-07-29T15:10:10;3.63;;;2.20;;
11228;SDS011;5671;47.936;8.716;2023-07-29T15:12:42;2.47;;;2.27;;
11228;SDS011;5671;47.936;8.716;2023-07-29T15:15:10;2.50;;;2.30;;